Last 365 Observations

Stanford Met Tower

Daily Data | America/Los_Angeles
as of 11/27/22 11:12 PM PST
Date Daily Max Temp (°F) Time of Max Temp Daily Min Temp (°F) Time of Min Temp Daily Rain (In) Month Precip (In) Season Precip (In) Daily ETo (in) 7 Day ETo (in) Daily Solar Rad (Cal/cm2) Daily Max Wind (mph) Time of Max Wind Max Wind Dir (°) Dew Pt (°F) Max RH (%) Min RH (%) PM2.5 Daily Max (ug/m3) Time of Max PM2.5 Max Pressure (mb) (mb) Time of Max Press Min pressure (mb) (mb) Time of Min Press Max Temp2 (°F) Temp 2m (°F) Max Temp 10m (°F) Min Temp 10m (°F) Max Temp Inversion (°F) Time of Max Temp Inversion Min Temp Inversion (°F) Time of Min Temp Inversion GDDs (DL) Seas GDDs (DL) Chilling <=45F (hrs) Chilling <=45F Seas (hrs) HDDs (°F) CDDs (°F) Storm Total (In) Daily Max Rain Intensity (In/Hr) Time of Max Rain Intensity Max 1 Min Rain (In) Max 1 Min Rain Time Max 15 Min Rain (In) Max 15 Min Precip Time Max 60 Min Rain (In) Max 60 Min Rain Time MinBV Day (V)
11/26/22 64.7 1426 36.8 0416 0.00 1.80 2.19 0.063 0.46 269 10.6 2157 SSW | 203 37.3 84 33 13.7 0858 1,027.2 0352 1,021.7 1631 67.6 48.2 63.7 37.7 6.2 0223 -6.0 1325 3.3 - 12.8 232 17.0 0.0 - - - - - - - - - 12.4
11/25/22 68.0 1448 35.0 0657 0.00 1.80 2.19 0.067 0.46 273 9.7 2201 SSW | 192 37.6 91 33 26.8 1628 1,030.2 0819 1,025.7 1438 70.2 49.0 67.2 35.8 6.6 0504 -6.0 1256 4.4 - 12.3 219 16.2 0.1 - - - - - - - - - 12.4
11/24/22 69.6 1437 37.5 0602 0.00 1.80 2.19 0.066 0.47 276 9.6 0429 SSW | 194 37.8 85 32 12.0 1013 1,028.6 2359 1,023.3 1315 71.5 50.5 68.8 39.5 7.8 0249 -5.4 1309 5.1 - 10.9 207 14.8 0.5 - - - - - - - - - 12.4
11/23/22 69.4 1356 37.0 0715 0.00 1.80 2.19 0.066 0.47 272 11.8 2356 SSW | 198 38.9 96 32 13.8 0858 1,026.5 0814 1,022.1 1434 72.1 50.1 68.4 38.5 6.0 1730 -5.2 1327 5.2 - 11.4 196 15.3 0.5 - - - - - - - - - 12.4
11/22/22 65.0 1359 32.7 0624 0.00 1.80 2.19 0.061 0.48 263 8.8 0508 SSW | 203 34.0 84 30 9.5 0943 1,026.3 0825 1,022.1 1613 67.4 47.2 65.1 33.8 6.2 1747 -5.6 1218 3.8 - 12.2 185 17.8 0.0 - - - - - - - - - 12.4
11/21/22 65.6 1434 34.0 0703 0.00 1.80 2.19 0.067 0.49 282 10.6 0001 SSW | 201 33.9 89 28 18.0 0213 1,027.0 0813 1,022.9 1443 68.5 47.3 64.0 36.1 7.0 0246 -5.7 1234 3.7 - 12.4 172 17.6 0.0 - - - - - - - - - 12.4
11/20/22 66.3 1438 32.5 0429 0.00 1.80 2.19 0.065 0.49 289 10.2 2358 SSW | 196 34.5 91 28 26.2 1043 1,029.3 0829 1,024.2 1617 68.5 46.8 65.4 33.4 6.2 1711 -5.9 1324 3.7 - 12.8 160 18.3 0.0 - - - - - - - - - 12.4
11/19/22 64.0 1530 33.5 0642 0.00 1.80 2.19 0.071 0.50 292 17.0 0955 E | 84 30.7 82 26 9.7 2243 1,027.2 2322 1,022.6 1424 67.0 46.8 63.7 35.5 10.3 0647 -5.8 1251 3.0 - 13.1 147 18.3 0.0 - - - - - - - - - 12.4
11/18/22 66.3 1321 35.4 0342 0.00 1.80 2.19 0.072 0.50 294 10.6 0249 SSW | 192 36.4 92 28 13.7 0913 1,025.0 0001 1,018.7 1546 69.5 48.2 65.1 35.9 6.6 1701 -6.1 1219 4.1 - 12.0 134 16.9 0.0 - - - - - - - - - 12.2
11/17/22 64.6 1302 34.0 0535 0.00 1.80 2.19 0.064 0.50 268 10.2 1317 N | 11 35.5 87 29 21.3 1458 1,030.0 0003 1,024.4 1640 67.7 47.0 62.6 35.0 4.9 1851 -6.4 1224 3.3 - 12.3 122 18.2 0.0 - - - - - - - - - 12.4
11/16/22 68.1 1445 36.0 0625 0.00 1.80 2.19 0.079 0.50 307 11.8 0644 SSW | 203 30.5 80 18 6.2 2058 1,032.2 0823 1,028.0 1510 71.7 49.4 67.2 38.5 6.9 1711 -5.9 1240 4.7 - 12.0 110 15.8 0.3 - - - - - - - - - 12.4
11/15/22 66.3 1456 36.8 0659 0.00 1.80 2.19 0.074 0.49 306 11.6 1113 NNE | 12 36.0 93 28 15.2 0643 1,029.9 2324 1,024.2 0001 68.5 49.5 65.3 37.7 5.7 1639 -5.9 1253 4.0 - 11.2 98 15.4 0.0 - - - - - - - - - 12.4
11/14/22 61.1 1343 32.8 0629 0.00 1.80 2.19 0.066 0.46 298 9.2 1245 NE | 46 37.2 94 34 6.3 2258 1,026.0 0902 1,021.1 1532 64.5 47.3 60.6 33.8 3.8 2229 -6.4 1301 2.6 - 8.6 87 17.9 0.0 - - - - - - - - - 12.4
11/13/22 60.4 1513 38.5 0000 0.00 1.80 2.19 0.073 0.47 316 11.6 1352 N | 4 37.8 98 35 4.3 0628 1,025.5 0809 1,021.8 1501 64.0 48.3 59.9 39.2 7.6 1940 -6.1 1310 2.6 - 11.5 78 16.9 0.0 - - - - - - - - - 12.4
11/12/22 59.8 1229 38.1 0031 0.00 1.80 2.19 0.077 0.47 312 19.2 1625 NW | 317 40.8 97 44 4.3 2228 1,024.0 0856 1,021.7 1443 63.8 49.4 58.8 39.2 4.7 0750 -5.7 1238 2.6 - 7.1 67 15.8 0.0 - - - - - - - - - 12.4
11/11/22 61.0 1315 35.3 0559 0.00 1.80 2.19 0.063 0.44 284 10.2 1538 NNW | 344 39.2 97 43 4.7 1643 1,026.2 0026 1,021.2 1520 63.8 46.4 59.8 36.1 4.0 1717 -5.9 1250 2.5 - 13.4 59 18.6 0.0 - - - - - - - - - 12.4
11/10/22 59.8 1312 37.8 0654 0.00 1.80 2.19 0.069 0.44 318 11.5 1142 ENE | 70 40.1 97 48 7.5 0658 1,029.8 0841 1,024.7 1520 63.5 46.9 58.8 38.7 3.6 1713 -6.3 1220 2.1 - 12.9 46 18.3 0.0 - - - - - - - - - 12.4
11/9/22 60.1 1258 39.2 0617 0.02 1.80 2.19 0.071 0.45 298 17.1 1252 WNW | 291 42.3 98 49 6.7 2058 1,028.4 2309 1,013.3 0001 64.3 48.4 59.3 39.5 4.5 1821 -6.2 1301 2.4 - 12.0 33 16.6 0.0 1.45 0.04 0217 0.01 0118 0.02 0118 0.02 0203 12.4
11/8/22 55.7 1243 44.2 2359 1.21 1.78 2.17 0.041 0.45 179 21.1 1133 WNW | 292 45.0 98 63 2.5 0000 1,013.4 2359 1,004.4 0721 57.1 48.7 54.0 44.5 2.6 1855 -4.5 1249 0.8 - 0.1 21 15.7 0.0 1.43 0.60 0325 0.01 2149 0.12 0333 0.31 0414 12.5
11/7/22 60.9 1341 44.3 0649 0.07 0.57 0.96 0.077 0.45 307 22.2 0108 NW | 326 44.7 97 42 5.0 0843 1,016.5 0833 1,011.4 2346 64.7 52.7 60.5 44.6 4.2 0627 -6.1 1406 3.3 - 0.2 21 12.1 0.0 0.22 0.34 0054 0.01 2318 0.03 0103 0.15 0007 12.4
11/6/22 61.7 1226 52.4 0642 0.15 0.50 0.89 0.075 0.43 224 17.7 2117 S | 186 45.6 95 50 9.7 0643 1,018.2 0342 1,011.7 2340 65.9 56.6 60.8 51.2 2.1 0643 -6.0 1223 6.7 - 0.0 21 8.3 0.0 0.15 0.40 2330 0.01 2356 0.09 2322 0.15 0000 12.4
11/5/22 65.4 1245 48.0 0744 0.02 0.35 0.74 0.043 0.44 146 13.7 1437 S | 191 54.0 98 70 11.8 0143 1,028.3 0101 1,017.5 0024 66.5 57.7 64.0 48.8 3.0 0630 -3.2 1211 8.2 - 0.0 21 6.9 0.0 - 0.02 0604 0.01 0505 0.01 0519 0.02 0527 12.4
11/4/22 65.2 1455 36.8 0415 0.00 0.33 0.72 0.060 0.49 244 10.8 1300 ENE | 59 43.4 96 45 6.8 0058 1,031.7 0957 1,027.9 1651 68.0 51.3 63.4 37.1 4.3 0315 -5.5 1455 4.4 - 7.1 21 14.0 0.0 - - - - - - - - - 12.4
11/3/22 60.5 1604 37.0 0739 0.00 0.33 0.72 0.082 0.50 346 15.0 1417 N | 2 35.7 91 30 3.7 1228 1,029.5 0046 1,022.5 0202 63.7 48.0 59.8 37.6 6.0 0411 -6.6 1314 2.3 - 10.2 14 17.1 0.0 - - - - - - - - - 12.4
11/2/22 59.4 1352 41.9 2308 0.01 0.33 0.72 0.072 0.52 285 29.0 1159 W | 271 43.1 96 53 5.5 0743 1,022.9 1210 1,020.1 0136 63.1 50.6 58.3 43.7 5.6 2308 -5.7 1336 2.5 - 2.5 3 14.1 0.0 0.33 0.01 1306 0.01 1207 0.01 1221 0.01 1306 12.5
11/1/22 61.9 1056 43.7 2310 0.32 0.32 0.71 0.038 0.55 134 29.8 1524 WSW | 256 47.7 95 59 5.0 0100 1,020.3 0053 1,012.1 1040 61.6 52.5 60.9 44.7 5.8 2333 -4.4 1425 3.9 - 1.0 1 11.9 0.0 0.32 1.24 1124 0.02 1126 0.13 1135 0.23 1222 12.5
10/31/22 66.1 1605 44.1 0422 0.00 0.00 0.39 0.058 0.61 234 12.3 2019 SSW | 197 48.1 96 63 34.0 1813 1,020.6 0101 1,012.1 1649 68.6 53.8 64.9 44.3 4.7 0054 -6.0 1428 5.3 2,878 2.4 - 11.4 0.0 - - - - - - - - - 12.4
10/30/22 71.3 1356 45.3 0059 0.00 0.00 0.39 0.084 0.66 320 10.2 1532 NNE | 18 52.0 98 54 20.7 0343 1,024.8 0101 1,018.7 1715 76.2 57.4 70.2 46.5 4.9 0104 -8.6 1146 7.2 2,872 0.0 - 9.0 0.8 - - - - - - - - - 12.3
10/29/22 70.6 1620 38.4 0632 0.00 0.00 0.39 0.092 0.69 340 16.6 1626 NW | 314 42.7 89 36 11.8 2213 1,028.2 0908 1,023.4 1516 74.5 54.3 69.6 39.8 5.8 1921 -6.8 1349 7.0 2,865 7.8 - 11.9 0.9 - - - - - - - - - 12.3
10/28/22 68.5 1318 40.0 0725 0.00 0.00 0.39 0.078 0.71 290 13.1 1424 N | 11 41.3 84 35 13.7 2058 1,027.0 0058 1,021.8 0101 73.3 52.5 67.4 41.1 5.1 1902 -7.1 1334 5.5 2,858 8.4 - 12.9 0.3 - - - - - - - - - 12.4
10/27/22 71.6 1409 38.2 0710 0.00 0.00 0.39 0.100 0.73 370 12.0 1507 N | 352 37.8 89 23 10.3 0828 1,022.0 0927 1,017.9 1408 75.9 53.6 70.0 39.6 5.9 1823 -7.8 1306 6.6 2,853 7.8 - 12.6 0.9 - - - - - - - - - 12.3
10/26/22 66.7 1523 38.8 0616 0.00 0.00 0.39 0.098 0.74 366 17.6 1341 N | 352 40.6 91 36 18.8 0943 1,023.2 0840 1,018.4 1741 71.4 52.1 65.9 40.0 4.7 1916 -6.9 1243 5.3 2,846 8.6 - 13.5 0.1 - - - - - - - - - 12.3
10/25/22 69.1 1515 42.1 0059 0.00 0.00 0.39 0.099 0.76 370 16.2 1422 NNE | 17 44.8 92 42 12.0 0728 1,026.2 0101 1,019.6 1538 73.1 55.3 68.1 44.6 7.0 2255 -7.2 1230 6.6 2,841 1.7 - 10.7 0.5 - - - - - - - - - 12.3
10/24/22 74.2 1538 41.9 0651 0.00 0.00 0.39 0.109 0.76 382 11.2 0446 SSW | 200 35.7 76 18 8.3 0913 1,026.3 0950 1,022.3 0101 78.6 57.3 72.8 43.6 5.9 0258 -7.8 1237 8.8 2,834 6.6 - 10.0 1.9 - - - - - - - - - 12.5
10/23/22 68.3 1453 40.7 0739 0.00 0.00 0.39 0.113 0.76 392 19.5 1559 NNW | 335 38.2 86 27 10.0 0143 1,022.8 0034 1,014.6 0101 72.9 54.1 67.6 41.9 7.9 2104 -6.6 1237 5.9 2,825 5.2 - 11.7 0.3 - - - - - - - - - 12.4
10/22/22 68.4 1313 48.3 0059 0.00 0.00 0.39 0.116 0.70 355 29.9 1746 WNW | 303 48.0 92 43 19.2 0313 1,014.8 0050 1,009.7 1401 73.1 60.4 67.4 50.2 4.9 0055 -6.6 1326 10.2 2,820 0.0 - 5.0 0.2 - - - - - - - - - 12.4
10/21/22 67.8 1645 48.4 0241 0.00 0.00 0.39 0.092 0.67 367 14.4 1355 N | 355 52.9 96 63 41.3 0928 1,016.2 0950 1,012.4 1834 72.3 59.7 66.2 49.3 2.8 0258 -7.7 1241 8.8 2,809 0.0 - 6.4 0.2 - - - - - - - - - 12.3
10/20/22 78.9 1412 45.8 0734 0.00 0.00 0.39 0.110 0.68 388 9.4 1539 N | 1 49.6 94 40 27.3 1843 1,019.0 0904 1,012.5 1648 84.4 60.2 77.0 47.3 6.1 0503 -7.9 1353 10.1 2,801 0.0 - 8.0 2.6 - - - - - - - - - 12.3
10/19/22 89.8 1349 50.4 0724 0.00 0.00 0.39 0.122 0.66 390 8.6 2305 SSW | 195 48.4 84 20 10.8 0743 1,021.9 0917 1,015.8 1722 93.2 67.0 87.9 51.4 8.9 1843 -6.7 1340 16.9 2,790 0.0 - 5.2 7.1 - - - - - - - - - 12.3
10/18/22 82.3 1628 49.8 0650 0.00 0.00 0.39 0.101 0.63 344 9.1 2113 SSW | 203 53.6 95 38 12.8 1428 1,022.3 0849 1,017.2 1649 85.6 64.3 81.3 50.4 5.4 0026 -7.5 1346 14.1 2,774 0.0 - 5.1 4.2 - - - - - - - - - 12.3
10/17/22 72.0 1613 45.8 0656 0.00 0.00 0.39 0.103 0.63 381 11.8 1457 NNE | 15 51.6 97 55 8.0 2213 1,022.6 0900 1,017.4 1650 76.7 59.2 71.0 46.6 4.4 1922 -8.2 1318 9.2 2,759 0.0 - 7.7 1.3 - - - - - - - - - 12.3
10/16/22 68.1 1552 50.0 0057 0.00 0.00 0.39 0.050 0.64 151 14.7 1610 W | 265 53.1 92 60 21.7 0628 1,022.2 0052 1,016.4 0101 70.8 61.3 66.9 50.2 3.1 1841 -5.1 1557 11.4 2,750 0.0 - 3.9 0.3 - - - - - - - - - 12.4
10/15/22 69.2 1333 57.1 0726 0.00 0.00 0.39 0.095 0.69 359 18.2 1636 W | 265 54.7 91 63 22.3 0313 1,016.6 0016 1,013.0 1402 73.8 62.2 67.7 56.4 0.6 2335 -9.3 1259 11.4 2,739 0.0 - 3.9 0.3 - - - - - - - - - 12.3
10/14/22 71.0 1353 53.2 2244 0.00 0.00 0.39 0.094 0.71 356 10.8 1432 NNE | 21 54.9 96 61 23.0 0313 1,016.7 0118 1,009.6 1636 76.0 60.9 68.8 54.2 3.0 2237 -8.7 1356 10.0 2,727 0.0 - 5.7 0.7 - - - - - - - - - 12.3
10/13/22 68.1 1455 50.9 2336 0.00 0.00 0.39 0.097 0.73 383 12.0 1358 N | 1 54.0 97 65 14.2 0058 1,022.0 0120 1,016.0 1716 72.8 60.7 66.8 51.7 3.3 2125 -8.9 1407 9.7 2,717 0.0 - 5.6 0.3 - - - - - - - - - 12.3
10/12/22 70.4 1356 55.9 2125 0.00 0.00 0.39 0.090 0.75 339 10.9 1402 ENE | 72 56.5 95 65 38.5 0428 1,022.8 1033 1,019.4 1401 75.1 62.5 68.5 56.4 3.0 2100 -8.6 1411 11.6 2,708 0.0 - 4.0 0.6 - - - - - - - - - 12.3
10/11/22 70.0 1536 50.7 0107 0.00 0.00 0.39 0.104 0.77 396 12.1 1552 NE | 36 55.2 97 64 31.7 0728 1,020.7 0048 1,015.4 1416 76.0 61.4 68.4 51.8 3.8 2043 -8.9 1407 10.2 2,696 0.0 - 5.5 0.7 - - - - - - - - - 12.3
10/10/22 73.4 1649 50.9 0059 0.00 0.00 0.39 0.108 0.77 402 11.3 1318 NE | 51 56.1 96 60 19.8 0543 1,019.6 0835 1,014.3 1652 77.8 62.8 72.4 51.9 3.0 0051 -8.7 1320 11.7 2,686 0.0 - 4.8 1.5 - - - - - - - - - 12.3
10/9/22 69.9 1253 51.2 0129 0.00 0.00 0.39 0.103 0.80 397 11.9 1332 NE | 37 55.2 98 65 18.7 0558 1,021.4 0946 1,017.7 1707 75.4 60.8 68.2 51.7 2.6 2050 -8.8 1331 9.7 2,674 0.0 - 5.7 0.4 - - - - - - - - - 12.3
10/8/22 73.0 1238 51.0 0405 0.00 0.00 0.39 0.111 0.82 407 9.6 1425 NNE | 24 55.6 97 62 36.5 0743 1,021.9 0922 1,017.0 1611 78.3 61.4 72.0 51.3 3.1 2155 -8.8 1334 10.4 2,664 0.0 - 6.1 1.6 - - - - - - - - - 12.3
10/7/22 78.2 1440 49.6 0552 0.00 0.00 0.39 0.117 0.82 409 8.8 1351 NNW | 340 55.7 98 54 33.8 0958 1,022.6 0905 1,016.9 1650 83.2 62.7 76.8 50.0 3.6 0553 -9.2 1330 11.7 2,654 0.0 - 6.1 2.8 - - - - - - - - - 12.3
10/6/22 75.6 1456 48.5 0623 0.00 0.00 0.39 0.114 0.87 408 11.1 1515 NNE | 13 55.1 98 57 32.2 0843 1,021.4 0059 1,016.8 1419 80.4 61.2 74.1 48.4 3.8 2107 -9.2 1349 10.4 2,642 0.0 - 6.9 2.2 - - - - - - - - - 12.3
10/5/22 78.6 1615 49.2 0321 0.00 0.00 0.39 0.113 0.88 395 8.3 1534 NNE | 14 55.3 98 54 29.5 1028 1,020.5 1009 1,015.3 1647 82.8 61.7 77.7 50.2 3.4 2235 -8.5 1349 11.0 2,632 0.0 - 6.8 2.8 - - - - - - - - - 12.3
10/4/22 71.2 1333 50.5 0257 0.00 0.00 0.39 0.106 0.91 393 11.7 1522 NNE | 16 54.3 95 62 10.2 0958 1,020.8 0858 1,016.3 1735 77.5 60.7 70.0 50.7 3.5 2020 -9.4 1351 9.7 2,621 0.0 - 6.3 1.1 - - - - - - - - - 12.3
10/3/22 74.4 1624 50.2 0610 0.00 0.00 0.39 0.131 0.92 467 14.6 1422 NNW | 348 53.1 95 53 9.0 2158 1,021.1 0841 1,017.0 1633 78.3 61.9 73.4 50.6 4.2 2057 -8.7 1301 11.0 2,611 0.0 - 6.0 2.0 - - - - - - - - - 12.3
10/2/22 73.2 1602 54.0 0041 0.00 0.00 0.39 0.131 0.92 464 15.8 1544 NNE | 30 54.1 90 53 6.0 0843 1,019.5 0050 1,014.7 0147 77.6 64.7 71.9 54.6 2.9 0605 -8.9 1316 13.8 2,600 0.0 - 3.1 1.9 - - - - - - - - - 12.3
10/1/22 73.9 1634 53.9 0148 0.00 0.00 0.39 0.112 0.92 408 15.8 1840 WSW | 248 57.0 97 58 14.0 0713 1,015.0 2356 1,011.4 1618 76.7 64.0 72.2 55.6 3.3 0134 -9.3 1234 13.0 2,586 0.0 - 3.2 1.1 - - - - - - - - - 12.3
9/30/22 88.4 1402 51.9 0537 0.00 0.38 0.39 0.161 0.98 495 11.6 1618 N | 9 54.4 95 23 10.3 0843 1,015.3 0249 1,008.2 1718 93.4 67.9 86.5 52.4 4.5 0121 -9.0 1330 17.2 2,573 0.0 - 4.4 6.6 - - - - - - - - - 12.3
9/29/22 82.4 1645 53.0 0427 0.00 0.38 0.39 0.121 0.99 488 10.9 1400 NW | 306 56.6 97 39 9.8 0828 1,021.1 0856 1,014.2 1720 86.8 66.9 81.4 53.4 4.3 2108 -9.3 1216 16.4 2,556 0.0 - 3.6 5.0 - - - - - - - - - 12.2
9/28/22 78.4 1435 49.3 0714 0.00 0.38 0.39 0.145 1.02 492 16.1 1649 N | 9 54.7 95 40 12.7 0843 1,020.6 2336 1,016.9 1441 83.7 63.7 77.2 49.5 3.3 0035 -8.5 1346 12.9 2,540 0.0 - 5.4 3.3 - - - - - - - - - 11.3
9/27/22 71.0 1636 51.2 0111 0.00 0.38 0.39 0.122 0.97 458 13.3 1423 N | 0 53.9 97 58 19.2 0243 1,024.0 1243 1,004.5 1243 75.4 61.9 69.3 52.9 4.2 0122 -9.1 1304 10.6 2,527 0.0 - 5.4 1.0 - - - - - - - - - 6.6
9/26/22 72.1 1428 51.2 0057 0.00 0.38 0.39 0.130 0.96 479 12.3 1504 NNE | 23 56.0 96 62 14.5 2228 1,018.5 0113 1,014.6 1434 78.0 63.5 70.7 51.6 3.4 0054 -8.9 1306 12.2 2,516 0.0 - 4.3 1.5 - - - - - - - - - 9.8
9/25/22 74.2 1505 55.1 0059 0.00 0.38 0.39 0.126 0.96 448 12.6 1310 NE | 46 57.7 95 61 20.5 0728 1,020.5 0946 1,015.9 1606 79.7 65.2 72.7 55.6 3.3 0049 -8.9 1248 14.1 2,504 0.0 - 3.1 2.1 - - - - - - - - - 10.9
9/24/22 89.0 1637 52.4 0641 0.00 0.38 0.39 0.172 0.94 519 11.7 1602 NNW | 347 56.2 94 26 20.5 0013 1,020.2 2330 1,015.1 1649 93.9 70.1 87.9 53.8 5.8 0133 -8.0 1158 19.3 2,490 0.0 - 3.5 7.8 - - - - - - - - - 11.6
9/23/22 87.3 1654 50.1 0719 0.00 0.38 0.39 0.170 0.91 522 11.5 1331 N | 5 52.6 92 29 5.2 2258 1,018.8 0849 1,012.8 1702 91.3 68.6 85.9 51.4 5.8 1933 -8.7 1256 17.9 2,471 0.0 - 4.5 7.4 - - - - - - - - - 11.6
9/22/22 80.3 1658 49.7 0623 0.00 0.38 0.39 0.157 0.89 517 14.0 1726 N | 6 52.3 91 36 4.3 2113 1,022.2 0857 1,015.6 1728 85.0 64.8 79.0 50.1 5.6 2112 -9.6 1232 14.0 2,453 0.0 - 5.3 4.2 - - - - - - - - - 11.4
9/21/22 73.5 1609 53.2 0059 0.02 0.38 0.39 0.091 0.88 300 12.8 1714 NNW | 329 55.3 93 50 5.8 0713 1,020.6 0044 1,015.5 0210 78.0 63.9 72.2 53.2 4.6 2130 -6.9 1603 13.5 2,439 0.0 - 3.3 1.8 - 0.01 0918 0.01 0819 0.01 0833 0.02 0820 11.5
9/20/22 75.1 1227 52.0 0655 0.00 0.36 0.37 0.118 0.92 374 16.2 1353 NW | 326 52.6 91 44 4.3 1343 1,015.8 2156 1,013.3 1658 80.3 63.7 73.3 52.0 3.9 2106 -8.1 1329 13.3 2,425 0.0 - 4.3 2.6 - - - - - - - - - 11.6
9/19/22 78.0 1615 53.8 0720 0.00 0.36 0.37 0.122 0.96 393 23.3 1818 SW | 216 55.1 97 44 3.7 0728 1,014.7 0057 1,009.4 1612 81.0 64.7 76.4 54.1 3.7 0352 -7.1 1520 14.7 2,412 0.0 - 3.3 3.0 - - - - - - - - - 11.5
9/18/22 74.0 1543 59.8 0055 0.36 0.36 0.37 0.107 0.98 316 30.8 1035 SE | 137 56.9 95 55 5.5 1843 1,010.3 0055 1,003.6 0525 76.2 64.0 72.7 56.9 3.6 2054 -5.1 1539 14.7 2,397 0.0 - 1.5 1.2 0.36 1.24 1841 0.02 1840 0.17 1841 0.27 1848 11.5
9/17/22 70.1 1224 49.8 0535 0.00 0.00 0.01 0.143 1.00 513 21.4 1534 WNW | 294 51.9 96 50 9.3 0258 1,014.6 0101 1,007.5 0045 76.4 62.0 69.0 51.5 5.7 0603 -8.7 1448 10.8 2,383 0.0 - 4.9 0.8 - - - - - - - - - 11.5
9/16/22 78.8 1639 49.0 0556 0.00 0.00 0.01 0.157 0.96 532 16.9 1701 SSW | 207 52.8 97 43 11.5 0658 1,019.8 0101 1,013.7 1655 83.5 63.4 77.3 49.9 5.4 0551 -9.6 1245 12.3 2,372 0.0 - 5.8 3.1 - - - - - - - - - 11.3
9/15/22 72.5 1611 52.4 0439 0.00 0.00 0.01 0.139 0.98 484 18.6 1413 NNW | 343 52.8 94 51 21.8 0743 1,020.1 2330 1,017.2 1616 78.1 62.6 71.0 52.9 3.8 2154 -8.6 1540 11.6 2,360 0.0 - 5.0 1.6 - - - - - - - - - 11.4
9/14/22 75.8 1457 51.3 0639 0.00 0.00 0.01 0.131 1.04 409 20.5 1616 WSW | 256 53.1 96 42 17.7 0658 1,018.4 0054 1,014.6 1507 81.3 63.6 74.3 52.0 5.4 0218 -9.1 1358 12.8 2,348 0.0 - 4.9 2.6 - - - - - - - - - 11.3
9/13/22 72.7 1321 54.5 0024 0.00 0.00 0.01 0.162 1.10 555 24.4 1715 NW | 305 53.4 92 48 10.7 0728 1,016.5 0820 1,013.3 1457 78.2 64.4 71.6 55.4 4.6 2202 -9.5 1159 13.1 2,335 0.0 - 3.7 1.8 - - - - - - - - - 11.4
9/12/22 80.6 1422 61.2 0029 0.00 0.00 0.01 0.145 1.15 452 18.7 1629 NNW | 329 56.8 84 33 16.3 0100 1,018.0 0212 1,013.4 1433 86.3 69.7 79.2 61.5 1.7 2219 -9.6 1208 18.6 2,322 0.0 - 0.6 4.1 - - - - - - - - - 11.5
9/11/22 82.0 1748 66.4 0024 0.00 0.00 0.01 0.118 1.22 352 11.9 1451 N | 0 61.0 88 35 22.5 0113 1,018.7 1052 1,015.7 1752 85.1 72.6 80.3 65.8 2.6 2145 -8.9 1253 21.8 2,304 0.0 - 0.0 6.8 - - - - - - - - - 11.3
9/10/22 80.1 1436 60.2 0557 0.00 0.00 0.01 0.109 1.30 306 22.5 1625 SSW | 201 62.0 93 59 25.2 2243 1,017.2 2135 1,006.7 0101 82.0 70.2 78.6 60.5 3.0 0557 -6.8 1240 19.8 2,282 0.0 - 1.0 5.8 - - - - - - - - - 11.3
9/9/22 85.9 1522 58.4 0652 0.00 0.00 0.01 0.175 1.39 546 9.8 1351 NNE | 26 60.0 92 40 30.3 0143 1,006.9 0037 999.0 1432 91.6 72.4 84.5 59.3 4.3 0409 -9.7 1324 21.0 2,262 0.0 - 1.1 7.1 - - - - - - - - - 11.5
9/8/22 100.8 1619 61.3 0601 0.00 0.00 0.01 0.196 1.38 555 9.8 1725 NE | 47 59.1 80 20 29.8 0058 1,014.8 0101 1,003.3 1649 106.2 80.3 99.0 62.9 4.8 0246 -8.3 1326 29.2 2,241 0.0 - 0.5 14.7 - - - - - - - - - 11.4
9/7/22 94.3 1717 62.2 0611 0.00 0.00 0.01 0.192 1.37 555 11.8 1523 N | 352 60.7 84 26 22.3 0528 1,016.1 0845 1,011.5 1717 98.5 77.1 92.9 63.4 5.0 0412 -9.2 1220 25.6 2,212 0.0 - 0.3 10.9 - - - - - - - - - 11.5
9/6/22 109.3 1306 65.4 0604 0.00 0.00 0.01 0.217 1.35 572 17.7 1650 WSW | 252 57.4 78 14 15.2 2158 1,013.5 0059 1,005.3 1302 112.3 83.1 106.3 66.8 7.1 0134 -8.4 1429 32.1 2,186 0.0 - 0.0 17.1 - - - - - - - - - 11.3
9/5/22 106.9 1622 59.6 0637 0.00 0.00 0.01 0.215 1.30 575 13.2 1643 NNE | 17 53.4 75 10 11.2 2143 1,011.9 0802 1,004.1 1653 110.5 82.5 105.6 61.5 7.2 2303 -8.8 1454 31.6 2,154 0.0 - 0.9 17.4 - - - - - - - - - 11.7
9/4/22 94.7 1642 54.3 0639 0.00 0.00 0.01 0.201 1.25 585 12.4 1629 N | 5 54.0 88 17 9.2 0828 1,016.0 0718 1,008.9 1842 99.1 75.0 93.5 55.1 9.2 2230 -8.9 1233 23.7 2,123 0.0 - 2.6 11.3 - - - - - - - - - 11.1
9/3/22 87.8 1534 54.8 0644 0.00 0.00 0.01 0.196 1.23 592 11.8 1732 NNW | 346 56.5 91 31 17.2 0158 1,017.1 0733 1,012.2 1457 92.6 72.1 85.8 55.0 3.2 0004 -9.6 1255 20.6 2,099 0.0 - 2.4 8.0 - - - - - - - - - 11.3
9/2/22 78.7 1809 50.4 0652 0.00 0.00 0.01 0.163 1.21 571 11.4 1357 NE | 50 56.3 97 52 23.2 0913 1,016.5 0057 1,011.9 1635 80.7 66.1 76.8 51.2 3.9 0544 -10.7 1236 14.5 2,078 0.0 - 4.1 3.6 - - - - - - - - - 11.1
9/1/22 85.1 1438 50.1 0630 0.00 0.00 0.01 0.190 1.23 608 10.6 1411 NNE | 20 55.4 91 36 13.8 0713 1,015.8 0812 1,008.9 1637 91.1 68.5 83.1 51.5 3.0 0113 -10.6 1257 16.8 2,064 0.0 - 4.2 6.0 - - - - - - - - - 9.2
8/31/22 78.7 1607 54.4 0111 0.00 0.01 0.01 0.170 1.23 577 10.9 1327 NNW | 348 56.1 95 39 16.8 0828 1,019.0 0854 1,013.9 1807 84.0 67.6 77.4 55.8 3.5 2215 -10.5 1210 15.8 2,047 0.0 - 2.9 3.6 - - - - - - - - - 9.1
8/30/22 74.5 1607 55.1 0058 0.00 0.01 0.01 0.164 1.24 570 14.7 1622 N | 5 56.8 95 57 22.3 0543 1,018.5 0058 1,015.4 1502 80.4 66.0 73.0 55.6 3.2 2340 -10.0 1321 14.4 2,031 0.0 - 3.4 2.8 - - - - - - - - - 10.3
8/29/22 76.7 1712 56.3 0351 0.00 0.01 0.01 0.164 1.27 563 15.2 1514 NNE | 27 57.4 91 53 15.8 0043 1,016.9 0024 1,012.7 1516 80.5 67.0 74.8 56.4 3.1 2332 -10.1 1327 15.5 2,017 0.0 - 2.6 3.1 - - - - - - - - - 10.5
8/28/22 78.8 1516 54.5 0659 0.00 0.01 0.01 0.180 1.32 616 16.3 2021 WSW | 241 56.0 93 44 23.8 0143 1,013.9 0054 1,009.0 1714 83.5 66.5 76.9 54.8 3.2 0633 -11.0 1211 15.0 2,001 0.0 - 3.1 3.1 - - - - - - - - - 9.4
8/27/22 82.8 1738 58.5 0059 0.00 0.01 0.01 0.182 1.33 611 14.4 1345 N | 1 58.4 92 40 27.2 2313 1,014.1 0101 1,008.9 2058 84.5 69.4 81.1 59.2 1.9 0058 -10.0 1327 17.8 1,986 0.0 - 1.5 4.3 - - - - - - - - - 9.2
8/26/22 77.4 1605 59.6 0014 0.00 0.01 0.01 0.179 1.35 611 14.0 1408 N | 5 59.5 92 60 4.5 2043 1,017.7 0133 1,012.6 1859 83.2 69.2 75.8 59.8 2.4 2346 -9.8 1137 17.4 1,968 0.0 - 1.4 3.9 - - - - - - - - - 10.4
8/25/22 80.7 1445 58.9 2249 0.00 0.01 0.01 0.190 1.36 631 12.8 1325 NE | 47 58.5 90 52 7.8 0628 1,018.2 2322 1,013.4 1521 86.6 69.7 79.0 59.3 2.0 2244 -10.2 1257 18.1 1,951 0.0 - 1.5 4.6 - - - - - - - - - 9.2
8/24/22 79.2 1532 59.7 0132 0.00 0.01 0.01 0.181 1.36 612 13.1 1152 NE | 53 59.1 90 52 8.7 0828 1,014.7 0047 1,009.3 1529 84.7 69.2 77.7 60.6 1.9 0132 -10.9 1352 17.4 1,933 0.0 - 1.4 3.7 - - - - - - - - - 9.2
8/23/22 86.6 1632 60.3 0034 0.00 0.01 0.01 0.192 1.31 608 13.0 1435 ENE | 58 60.9 93 45 4.0 2143 1,016.1 0111 1,008.1 1706 90.3 71.9 84.4 61.1 1.6 2201 -10.3 1257 20.4 1,916 0.0 - 0.9 6.3 - - - - - - - - - 10.5
8/22/22 86.5 1636 60.0 0649 0.00 0.01 0.01 0.211 1.34 642 19.9 1527 N | 349 59.6 93 39 5.8 0158 1,020.2 0733 1,015.4 1741 92.5 72.4 85.3 59.7 4.1 2227 -10.1 1349 20.8 1,895 0.0 - 1.2 7.0 - - - - - - - - - 11.3
8/21/22 84.1 1439 54.8 0349 0.00 0.01 0.01 0.197 1.33 634 22.1 1716 SW | 223 58.0 96 44 10.8 0713 1,019.9 0044 1,014.4 0153 88.1 68.5 82.6 55.2 3.1 0132 -10.7 1414 17.0 1,874 0.0 - 2.7 4.8 - - - - - - - - - 10.9
8/20/22 85.3 1524 54.8 0638 0.00 0.01 0.01 0.200 1.35 648 11.8 1549 N | 9 58.9 94 46 12.8 0758 1,014.7 0059 1,008.1 1523 90.6 69.6 83.1 54.7 3.7 0038 -10.4 1324 17.8 1,857 0.0 - 2.9 5.6 - - - - - - - - - 10.6
8/19/22 81.0 1533 59.7 0100 0.00 0.01 0.01 0.193 1.37 638 14.2 1550 NNW | 335 58.9 94 43 12.7 1628 1,016.0 0434 1,009.6 1531 86.8 69.7 79.5 59.7 2.0 0013 -10.8 1355 17.9 1,840 0.0 - 1.5 4.4 - - - - - - - - - 10.6
8/18/22 81.6 1648 55.1 0555 0.00 0.01 0.01 0.182 1.39 606 12.1 1411 NNE | 14 58.2 95 43 14.7 0758 1,017.2 0853 1,013.1 1527 85.5 68.1 79.6 55.2 3.0 0136 -9.9 1216 16.3 1,822 0.0 - 2.9 4.2 - - - - - - - - - 10.4
8/17/22 80.4 1355 58.8 0055 0.00 0.01 0.01 0.137 1.41 437 21.8 0549 SW | 235 59.5 92 52 11.5 0328 1,015.6 0053 1,011.0 0545 86.2 69.7 79.3 59.9 3.6 0207 -9.4 1535 18.3 1,805 0.0 - 1.3 4.7 - - - - - - - - - 11.4
8/16/22 93.3 1643 52.2 0546 0.00 0.01 0.01 0.217 1.48 648 10.8 1654 NNE | 12 57.5 92 26 18.5 1443 1,013.0 0744 1,006.2 1537 98.5 73.3 91.2 52.9 3.5 0100 -10.0 1215 21.5 1,787 0.0 - 3.1 9.6 - - - - - - - - - 11.5
8/15/22 85.9 1515 53.3 0618 0.00 0.01 0.01 0.209 1.47 667 12.1 1524 N | 9 58.1 93 41 17.5 2128 1,015.5 0101 1,009.5 1523 91.2 69.9 84.9 53.2 3.7 0050 -10.8 1332 18.0 1,766 0.0 - 3.3 6.3 - - - - - - - - - 11.5
8/14/22 86.3 1635 50.8 0534 0.00 0.01 0.01 0.214 1.47 677 13.9 1343 NNE | 19 55.7 92 35 15.0 2358 1,019.1 0710 1,012.7 1703 90.2 69.1 84.2 51.0 2.1 2336 -10.1 1314 17.4 1,748 0.0 - 4.0 6.4 - - - - - - - - - 11.5
8/13/22 83.8 1557 50.6 0627 0.00 0.01 0.01 0.216 1.46 686 15.3 1625 N | 6 52.9 88 31 10.0 0028 1,020.3 0735 1,015.6 1506 89.4 68.1 82.5 50.8 3.0 0020 -10.6 1243 16.4 1,730 0.0 - 4.3 5.6 - - - - - - - - - 11.5
8/12/22 80.5 1542 50.4 0621 0.00 0.01 0.01 0.211 1.43 682 16.2 1534 NW | 318 53.1 94 39 12.5 0528 1,020.7 0700 1,016.4 1527 86.6 66.8 79.4 51.2 3.4 0317 -10.2 1154 15.0 1,714 0.0 - 4.5 4.5 - - - - - - - - - 10.6
8/11/22 79.9 1517 52.0 0640 0.00 0.01 0.01 0.206 1.42 674 17.9 1456 NNE | 22 54.8 91 41 5.0 0728 1,021.7 0719 1,017.1 1516 86.2 67.0 78.9 52.5 3.1 2235 -9.8 1253 15.4 1,699 0.0 - 3.8 4.2 - - - - - - - - - 11.2
8/10/22 80.6 1634 53.3 0550 0.00 0.01 0.01 0.207 1.43 674 17.2 1744 N | 355 56.2 92 46 4.0 0528 1,021.4 0042 1,017.4 1721 85.4 68.2 79.6 53.7 3.9 2315 -10.5 1229 16.6 1,683 0.0 - 3.3 4.9 - - - - - - - - - 11.5
8/9/22 81.2 1636 52.0 0545 0.00 0.01 0.01 0.204 1.42 670 18.8 1626 NNW | 341 55.2 92 43 4.2 2328 1,019.9 2349 1,014.6 1532 85.0 67.2 79.4 51.8 2.5 2304 -10.2 1229 15.5 1,667 0.0 - 3.8 4.3 - - - - - - - - - 11.6
8/8/22 80.1 1525 51.9 0640 0.00 0.01 0.01 0.210 1.41 688 21.1 1629 NW | 317 55.0 93 43 4.8 0758 1,020.3 0642 1,014.8 1652 85.2 66.7 78.7 52.1 3.0 2249 -10.4 1243 15.0 1,651 0.0 - 4.0 4.0 - - - - - - - - - 11.4
8/7/22 78.2 1701 52.2 0550 0.00 0.01 0.01 0.201 1.34 678 15.6 1843 N | 349 55.2 95 48 6.7 0328 1,020.0 0736 1,016.0 1556 82.6 66.2 76.6 52.7 3.0 0454 -10.2 1327 14.5 1,636 0.0 - 3.9 3.4 - - - - - - - - - 11.0
8/6/22 76.5 1517 56.4 0053 0.00 0.01 0.01 0.192 1.25 658 17.9 1500 N | 7 57.3 90 52 6.5 2228 1,019.0 0812 1,015.3 1837 81.7 68.7 74.9 56.9 3.0 0002 -11.0 1206 17.0 1,622 0.0 - 1.5 3.5 - - - - - - - - - 11.4
8/5/22 81.5 1519 61.8 0606 0.00 0.01 0.01 0.205 1.20 662 22.8 1648 SSW | 212 58.5 88 50 10.3 0100 1,018.3 0035 1,013.4 1513 85.4 69.4 79.6 61.2 0.8 0103 -10.3 1330 18.0 1,605 0.0 - 1.0 4.0 - - - - - - - - - 11.4
8/4/22 84.9 1553 59.4 0523 0.01 0.01 0.01 0.210 1.16 660 21.9 1649 SSW | 201 59.0 93 29 14.0 0228 1,015.3 0051 1,011.1 1550 88.4 70.8 83.3 59.4 2.2 0416 -10.7 1350 19.2 1,587 0.0 - 1.2 5.3 - 0.01 2224 0.01 2125 0.01 2139 0.01 2224 10.5
8/3/22 80.2 1704 59.1 0614 0.00 0.00 0.00 0.204 1.14 679 13.4 1224 N | 11 59.5 90 51 11.8 0028 1,018.5 0104 1,011.8 1813 85.6 70.9 78.6 59.0 1.6 0045 -10.4 1422 18.9 1,568 0.0 - 1.2 5.1 - - - - - - - - - 10.2
8/2/22 88.3 1529 58.2 0623 0.00 0.00 0.00 0.188 1.12 553 13.7 1300 NNE | 19 57.1 90 32 6.0 0758 1,019.5 0615 1,014.4 1549 92.7 72.2 85.7 58.7 2.4 0453 -10.1 1303 20.8 1,549 0.0 - 1.5 7.3 - - - - - - - - - 11.1
8/1/22 78.5 1703 61.3 0410 0.00 0.00 0.00 0.142 1.13 468 11.9 1451 ENE | 59 59.2 90 52 7.5 0558 1,019.3 0949 1,015.7 1723 83.5 69.1 76.9 61.0 3.2 2209 -10.8 1315 17.8 1,528 0.0 - 1.0 3.8 - - - - - - - - - 10.7
7/31/22 75.3 1630 61.8 0611 0.00 0.00 0.00 0.108 1.17 367 11.9 1753 NE | 42 58.8 87 60 5.2 0058 1,019.1 2344 1,015.7 1635 79.6 67.4 73.8 61.1 0.4 0218 -8.2 1108 16.3 1,510 0.0 - 1.0 2.3 - - - - - - - - - 11.4
7/30/22 78.1 1546 59.3 0625 0.00 0.00 0.00 0.149 1.27 506 15.4 1650 WSW | 257 57.7 87 53 1.7 1813 1,017.4 2151 1,013.7 1550 85.3 67.8 76.4 59.1 0.9 0617 -11.5 1212 16.4 1,494 0.0 - 1.8 3.2 - - - - - - - - - 11.4
7/29/22 77.9 1541 56.1 0432 0.00 0.00 0.00 0.164 1.32 556 14.0 1212 NNE | 27 57.0 91 54 3.0 1628 1,016.3 0854 1,011.8 1712 81.7 67.1 76.2 56.3 1.8 0334 -11.1 1224 15.5 1,477 0.0 - 2.6 3.1 - - - - - - - - - 11.2
7/28/22 75.0 1659 55.5 0219 0.00 0.00 0.00 0.184 1.37 663 15.1 1314 NE | 53 56.7 94 55 2.3 0343 1,017.6 0207 1,012.8 1612 80.1 66.2 73.4 56.5 2.8 0210 -10.8 1313 14.2 1,462 0.0 - 3.0 2.2 - - - - - - - - - 11.3
7/27/22 74.6 1713 57.2 0059 0.00 0.00 0.00 0.189 1.38 670 14.4 1531 NE | 50 57.1 92 54 2.3 1143 1,019.2 0913 1,015.1 1525 80.9 67.3 73.4 58.2 1.4 0059 -10.5 1309 15.3 1,448 0.0 - 2.0 2.3 - - - - - - - - - 11.2
7/26/22 76.2 1731 60.7 0426 0.00 0.00 0.00 0.195 1.40 680 14.4 1509 N | 0 57.3 86 52 5.5 0813 1,018.2 0058 1,013.9 1445 81.6 68.3 74.2 60.0 1.5 2129 -10.7 1417 16.3 1,433 0.0 - 1.6 2.9 - - - - - - - - - 11.2
7/25/22 72.2 1649 58.1 0106 0.00 0.00 0.00 0.183 1.40 664 14.1 1232 NNE | 24 55.9 88 60 10.7 0758 1,016.5 0917 1,012.5 1820 78.3 65.8 70.6 57.3 1.4 2345 -11.0 1327 13.8 1,416 0.0 - 2.9 1.7 - - - - - - - - - 11.2
7/24/22 74.7 1555 53.3 0134 0.00 0.00 0.00 0.201 1.44 710 16.2 1442 NNE | 26 55.4 95 55 10.5 0743 1,016.2 0816 1,011.6 1552 81.9 65.9 73.4 54.0 2.5 0101 -11.3 1216 13.6 1,403 0.0 - 3.7 2.3 - - - - - - - - - 11.2
7/23/22 73.2 1621 49.9 0459 0.00 0.00 0.00 0.201 1.46 732 15.2 1516 NNE | 28 53.7 94 55 10.7 0643 1,017.1 0909 1,012.1 1546 78.8 63.9 71.0 50.6 3.4 0547 -11.4 1215 11.7 1,389 0.0 - 5.0 1.7 - - - - - - - - - 10.6
7/22/22 82.9 1617 51.2 0603 0.00 0.00 0.00 0.219 1.48 731 14.7 1814 NNE | 16 53.5 94 32 12.2 0728 1,018.2 0700 1,013.5 1653 87.4 67.4 81.2 51.5 4.6 2241 -11.7 1218 15.4 1,377 0.0 - 4.1 4.5 - - - - - - - - - 10.3
7/21/22 75.5 1656 55.2 0012 0.00 0.00 0.00 0.197 1.48 698 12.1 1613 NE | 39 55.9 92 53 8.8 0713 1,020.1 0839 1,015.7 1831 81.2 66.3 73.5 56.0 2.9 0013 -12.0 1304 14.2 1,362 0.0 - 3.3 2.6 - - - - - - - - - 11.2
7/20/22 75.4 1536 54.0 0204 0.00 0.00 0.00 0.199 1.50 706 12.9 1353 N | 10 55.4 95 52 7.5 0713 1,021.0 0839 1,017.8 1558 81.0 65.6 73.4 54.8 2.5 0119 -11.3 1314 13.4 1,348 0.0 - 3.9 2.3 - - - - - - - - - 11.1
7/19/22 76.4 1508 51.9 0632 0.00 0.00 0.00 0.204 1.51 722 12.9 1543 ENE | 65 55.3 94 51 13.5 0113 1,020.0 0834 1,016.0 1530 82.3 65.4 74.4 52.9 2.8 0119 -11.1 1239 13.3 1,334 0.0 - 4.3 2.6 - - - - - - - - - 11.3
7/18/22 81.2 1252 55.0 0601 0.00 0.00 0.00 0.222 1.51 718 12.7 1410 N | 0 57.5 93 47 19.3 0728 1,018.2 0028 1,013.6 0101 88.8 70.1 79.9 55.2 3.4 0423 -10.9 1234 18.0 1,321 0.0 - 2.6 5.6 - - - - - - - - - 11.3
7/17/22 81.6 1655 53.9 0453 0.00 0.00 0.00 0.215 1.52 719 11.4 1707 NE | 47 57.4 95 43 16.0 2343 1,014.1 0204 1,010.0 1610 86.2 69.2 80.0 54.3 3.3 0210 -11.2 1209 17.1 1,303 0.0 - 2.7 4.8 - - - - - - - - - 11.4
7/16/22 83.4 1643 51.9 0300 0.00 0.00 0.00 0.221 1.54 714 11.4 1432 N | 8 56.8 95 42 12.0 0043 1,017.7 0735 1,011.0 1713 88.9 69.3 81.5 52.6 3.7 0330 -10.8 1321 17.2 1,286 0.0 - 3.6 5.7 - - - - - - - - - 11.3
7/15/22 78.0 1650 50.6 0620 0.00 0.00 0.00 0.221 1.54 750 14.4 1357 NE | 49 53.3 92 42 9.3 0743 1,019.0 0732 1,015.1 1536 84.2 66.1 76.2 50.7 2.6 0048 -10.3 1207 14.1 1,269 0.0 - 4.3 3.4 - - - - - - - - - 11.4
7/14/22 81.3 1549 55.5 0051 0.00 0.00 0.00 0.221 1.55 736 16.5 1556 NNE | 22 54.7 88 36 12.2 0328 1,018.0 2312 1,013.8 1533 87.2 68.6 79.9 56.1 4.2 2345 -10.9 1256 16.5 1,254 0.0 - 2.3 3.7 - - - - - - - - - 11.6
7/13/22 76.3 1716 59.7 2333 0.00 0.00 0.00 0.206 1.54 723 15.6 1329 NNE | 20 57.1 90 56 7.5 2143 1,017.7 0845 1,014.3 1723 80.9 68.1 74.6 59.2 2.5 2203 -11.8 1325 16.1 1,238 0.0 - 1.8 2.9 - - - - - - - - - 11.7
7/12/22 78.3 1627 57.3 0150 0.00 0.00 0.00 0.200 1.50 684 19.8 2100 SSW | 198 58.4 96 52 7.3 0243 1,015.6 0604 1,011.4 1608 82.8 68.6 76.5 58.0 2.5 0150 -11.4 1218 16.6 1,222 0.0 - 1.9 3.5 - - - - - - - - - 11.4
7/11/22 81.1 1418 55.3 0619 0.00 0.00 0.00 0.230 1.49 749 11.6 1306 NNE | 17 58.6 94 49 10.5 1443 1,016.5 0132 1,011.1 1751 88.5 70.3 79.4 55.4 3.9 0124 -11.1 1345 18.1 1,205 0.0 - 2.5 5.6 - - - - - - - - - 12.0
7/10/22 88.4 1522 55.0 0325 0.00 0.00 0.00 0.241 1.42 744 13.9 1838 N | 11 58.5 95 34 7.7 0428 1,022.8 0101 1,014.2 1833 94.2 72.8 86.0 55.3 4.0 0101 -11.1 1345 20.9 1,187 0.0 - 2.2 8.1 - - - - - - - - - 11.2
7/9/22 79.3 1640 53.4 0603 0.00 0.00 0.00 0.219 1.32 748 22.1 1823 NNW | 328 55.7 96 45 5.0 0058 1,024.0 0721 1,020.8 1737 85.4 67.1 78.3 53.8 4.4 0047 -10.6 1206 15.1 1,166 0.0 - 3.4 3.5 - - - - - - - - - 11.6
7/8/22 80.6 1505 51.2 0542 0.00 0.00 0.00 0.233 1.27 755 22.6 1542 NNW | 345 54.3 89 42 3.7 0813 1,022.3 2338 1,016.6 1423 86.9 67.5 79.6 51.5 3.5 0249 -10.2 1129 15.7 1,151 0.0 - 3.7 4.4 - - - - - - - - - 12.1
7/7/22 77.4 1458 53.4 0200 0.00 0.00 0.00 0.210 1.25 718 19.9 1832 NW | 326 54.2 93 46 3.0 2128 1,020.3 0914 1,016.4 1551 83.9 66.3 76.3 53.6 3.9 2214 -10.8 1133 14.3 1,135 0.0 - 3.5 2.8 - - - - - - - - - 12.1
7/6/22 73.5 1332 54.2 0050 0.00 0.00 0.00 0.172 1.24 580 19.8 1519 NNW | 347 56.0 92 55 1.2 0828 1,018.9 0021 1,015.3 1550 80.1 66.8 72.4 54.7 2.1 2354 -9.9 1357 15.5 1,121 0.0 - 1.6 2.1 - - - - - - - - - 12.1
7/5/22 78.1 1434 61.8 2332 0.00 0.00 0.00 0.185 1.27 605 21.3 1410 SSW | 204 60.5 89 55 15.0 0158 1,017.5 2237 1,014.1 1819 82.4 70.5 76.3 61.9 1.4 2214 -8.8 1401 19.3 1,106 0.0 - 0.3 4.6 - - - - - - - - - 12.2
7/4/22 80.4 1624 53.8 0103 0.00 0.00 0.00 0.159 1.31 503 17.6 1708 SSW | 199 56.8 83 49 11.8 0058 1,018.9 0108 1,014.7 1640 85.1 67.9 78.6 53.5 1.3 0320 -9.4 1346 16.8 1,086 0.0 - 2.1 3.8 - - - - - - - - - 12.1
7/3/22 68.0 1610 52.7 0001 0.00 0.00 0.00 0.144 1.35 534 17.3 1712 N | 353 50.9 89 54 3.0 1343 1,019.8 1123 1,016.5 1559 74.3 61.3 66.8 52.9 2.7 2321 -10.4 1429 9.7 1,070 0.0 - 5.5 0.2 - - - - - - - - - 12.1
7/2/22 68.0 1326 47.5 0357 0.00 0.00 0.00 0.172 1.41 671 21.1 1811 NW | 309 51.4 95 58 4.3 2143 1,019.4 2341 1,016.5 1555 74.8 60.2 66.8 47.9 3.5 0150 -9.9 1418 8.4 1,060 0.0 - 6.9 0.1 -